sensor_id;sensor_type;location;lat;lon;timestamp;pressure;altitude;pressure_sealevel;temperature;humidity
53546;BME280;39432;51.902;10.844;2023-05-23T00:00:22;99299.34;;;17.85;100.00
53546;BME280;39432;51.902;10.844;2023-05-23T00:02:54;99301.44;;;17.65;100.00
53546;BME280;39432;51.902;10.844;2023-05-23T00:05:24;99302.38;;;17.75;100.00
53546;BME280;39432;51.902;10.844;2023-05-23T00:07:55;99298.16;;;17.63;100.00
53546;BME280;39432;51.902;10.844;2023-05-23T00:10:24;99303.81;;;17.58;100.00
53546;BME280;39432;51.902;10.844;2023-05-23T00:12:54;99300.03;;;17.54;100.00
53546;BME280;39432;51.902;10.844;2023-05-23T00:15:24;99308.22;;;17.59;100.00
53546;BME280;39432;51.902;10.844;2023-05-23T00:17:57;99301.50;;;17.38;100.00
53546;BME280;39432;51.902;10.844;2023-05-23T00:20:27;99299.66;;;17.47;100.00
53546;BME280;39432;51.902;10.844;2023-05-23T00:22:57;99290.88;;;17.68;100.00
53546;BME280;39432;51.902;10.844;2023-05-23T00:25:29;99295.06;;;17.79;100.00
53546;BME280;39432;51.902;10.844;2023-05-23T00:28:01;99288.84;;;17.59;100.00
53546;BME280;39432;51.902;10.844;2023-05-23T00:30:32;99286.69;;;17.56;100.00
53546;BME280;39432;51.902;10.844;2023-05-23T00:33:05;99289.41;;;17.84;100.00
53546;BME280;39432;51.902;10.844;2023-05-23T00:35:35;99285.31;;;17.45;100.00
53546;BME280;39432;51.902;10.844;2023-05-23T00:38:05;99284.22;;;17.19;100.00
53546;BME280;39432;51.902;10.844;2023-05-23T00:40:34;99301.41;;;17.43;100.00
53546;BME280;39432;51.902;10.844;2023-05-23T00:43:04;99301.78;;;17.50;100.00
53546;BME280;39432;51.902;10.844;2023-05-23T00:45:34;99292.47;;;17.46;100.00
53546;BME280;39432;51.902;10.844;2023-05-23T00:48:07;99298.34;;;17.17;100.00
53546;BME280;39432;51.902;10.844;2023-05-23T00:50:37;99295.28;;;17.19;100.00
53546;BME280;39432;51.902;10.844;2023-05-23T00:53:07;99305.94;;;16.84;100.00
53546;BME280;39432;51.902;10.844;2023-05-23T00:55:37;99313.09;;;17.12;100.00
53546;BME280;39432;51.902;10.844;2023-05-23T00:58:08;99315.06;;;16.98;100.00
53546;BME280;39432;51.902;10.844;2023-05-23T01:00:39;99317.31;;;16.96;100.00
53546;BME280;39432;51.902;10.844;2023-05-23T01:03:12;99327.91;;;16.62;100.00
53546;BME280;39432;51.902;10.844;2023-05-23T01:05:44;99318.13;;;17.10;100.00
53546;BME280;39432;51.902;10.844;2023-05-23T01:08:14;99322.31;;;17.22;100.00
53546;BME280;39432;51.902;10.844;2023-05-23T01:10:44;99311.78;;;17.10;100.00
53546;BME280;39432;51.902;10.844;2023-05-23T01:13:21;99311.78;;;16.96;100.00
53546;BME280;39432;51.902;10.844;2023-05-23T01:15:57;99318.47;;;16.49;100.00
53546;BME280;39432;51.902;10.844;2023-05-23T01:18:37;99332.75;;;16.04;100.00
53546;BME280;39432;51.902;10.844;2023-05-23T01:21:11;99354.47;;;16.44;100.00
53546;BME280;39432;51.902;10.844;2023-05-23T01:24:01;99354.97;;;16.78;100.00
53546;BME280;39432;51.902;10.844;2023-05-23T01:26:42;99339.97;;;16.66;100.00
53546;BME280;39432;51.902;10.844;2023-05-23T01:29:23;99336.13;;;16.80;100.00
53546;BME280;39432;51.902;10.844;2023-05-23T01:31:56;99345.69;;;16.69;100.00
53546;BME280;39432;51.902;10.844;2023-05-23T01:34:27;99328.25;;;16.41;100.00
53546;BME280;39432;51.902;10.844;2023-05-23T01:36:58;99344.06;;;16.22;100.00
53546;BME280;39432;51.902;10.844;2023-05-23T01:39:28;99356.22;;;16.21;100.00
53546;BME280;39432;51.902;10.844;2023-05-23T01:41:58;99358.44;;;16.19;100.00
53546;BME280;39432;51.902;10.844;2023-05-23T01:44:31;99360.63;;;16.54;100.00
53546;BME280;39432;51.902;10.844;2023-05-23T01:47:05;99352.84;;;16.56;100.00
53546;BME280;39432;51.902;10.844;2023-05-23T01:49:36;99351.00;;;16.52;100.00
53546;BME280;39432;51.902;10.844;2023-05-23T01:52:07;99349.22;;;16.75;100.00
53546;BME280;39432;51.902;10.844;2023-05-23T01:54:39;99339.13;;;16.51;100.00
53546;BME280;39432;51.902;10.844;2023-05-23T01:57:12;99340.50;;;16.68;100.00
53546;BME280;39432;51.902;10.844;2023-05-23T01:59:45;99337.59;;;17.05;100.00
53546;BME280;39432;51.902;10.844;2023-05-23T02:02:15;99339.16;;;16.65;100.00
53546;BME280;39432;51.902;10.844;2023-05-23T02:04:45;99331.97;;;16.64;100.00
53546;BME280;39432;51.902;10.844;2023-05-23T02:07:15;99327.59;;;16.30;100.00
53546;BME280;39432;51.902;10.844;2023-05-23T02:09:49;99341.28;;;16.87;100.00
53546;BME280;39432;51.902;10.844;2023-05-23T02:12:19;99329.06;;;16.28;100.00
53546;BME280;39432;51.902;10.844;2023-05-23T02:14:52;99326.44;;;16.64;100.00
53546;BME280;39432;51.902;10.844;2023-05-23T02:17:22;99314.59;;;16.64;100.00
53546;BME280;39432;51.902;10.844;2023-05-23T02:19:52;99320.91;;;16.50;100.00
53546;BME280;39432;51.902;10.844;2023-05-23T02:22:23;99324.81;;;16.49;100.00
53546;BME280;39432;51.902;10.844;2023-05-23T02:24:53;99339.38;;;16.03;100.00
53546;BME280;39432;51.902;10.844;2023-05-23T02:27:23;99347.44;;;16.00;100.00
53546;BME280;39432;51.902;10.844;2023-05-23T02:29:55;99356.47;;;16.05;100.00
53546;BME280;39432;51.902;10.844;2023-05-23T02:32:27;99364.41;;;15.93;100.00
53546;BME280;39432;51.902;10.844;2023-05-23T02:34:58;99376.81;;;16.10;100.00
53546;BME280;39432;51.902;10.844;2023-05-23T02:37:28;99383.91;;;15.78;100.00
53546;BME280;39432;51.902;10.844;2023-05-23T02:39:58;99404.94;;;15.93;100.00
53546;BME280;39432;51.902;10.844;2023-05-23T02:42:27;99412.69;;;15.91;100.00
53546;BME280;39432;51.902;10.844;2023-05-23T02:45:00;99410.91;;;15.81;100.00
53546;BME280;39432;51.902;10.844;2023-05-23T02:47:30;99417.16;;;16.24;100.00
53546;BME280;39432;51.902;10.844;2023-05-23T02:50:00;99416.03;;;16.25;100.00
53546;BME280;39432;51.902;10.844;2023-05-23T02:52:31;99411.63;;;16.43;100.00
53546;BME280;39432;51.902;10.844;2023-05-23T02:55:01;99412.16;;;16.45;100.00
53546;BME280;39432;51.902;10.844;2023-05-23T02:57:37;99406.91;;;16.11;100.00
53546;BME280;39432;51.902;10.844;2023-05-23T03:00:11;99405.69;;;16.17;100.00
53546;BME280;39432;51.902;10.844;2023-05-23T03:02:46;99398.88;;;16.10;100.00
53546;BME280;39432;51.902;10.844;2023-05-23T03:05:16;99402.91;;;15.98;100.00
53546;BME280;39432;51.902;10.844;2023-05-23T03:07:46;99411.97;;;16.23;100.00
53546;BME280;39432;51.902;10.844;2023-05-23T03:10:17;99416.22;;;15.96;100.00
53546;BME280;39432;51.902;10.844;2023-05-23T03:12:47;99417.97;;;15.87;100.00
53546;BME280;39432;51.902;10.844;2023-05-23T03:15:20;99417.34;;;15.95;100.00
53546;BME280;39432;51.902;10.844;2023-05-23T03:17:50;99421.63;;;15.64;100.00
53546;BME280;39432;51.902;10.844;2023-05-23T03:20:20;99431.50;;;15.89;100.00
53546;BME280;39432;51.902;10.844;2023-05-23T03:22:50;99434.34;;;15.84;100.00
53546;BME280;39432;51.902;10.844;2023-05-23T03:25:22;99431.34;;;15.80;100.00
53546;BME280;39432;51.902;10.844;2023-05-23T03:27:53;99431.25;;;15.85;100.00
53546;BME280;39432;51.902;10.844;2023-05-23T03:30:26;99439.56;;;16.23;100.00
53546;BME280;39432;51.902;10.844;2023-05-23T03:32:56;99426.13;;;16.68;100.00
53546;BME280;39432;51.902;10.844;2023-05-23T03:35:28;99421.34;;;15.84;100.00
53546;BME280;39432;51.902;10.844;2023-05-23T03:37:58;99433.78;;;15.81;100.00
53546;BME280;39432;51.902;10.844;2023-05-23T03:40:28;99450.28;;;15.87;100.00
53546;BME280;39432;51.902;10.844;2023-05-23T03:43:02;99458.13;;;15.98;100.00
53546;BME280;39432;51.902;10.844;2023-05-23T03:45:38;99474.84;;;15.88;100.00
53546;BME280;39432;51.902;10.844;2023-05-23T03:48:12;99481.28;;;15.78;100.00
53546;BME280;39432;51.902;10.844;2023-05-23T03:50:42;99490.91;;;15.81;100.00
53546;BME280;39432;51.902;10.844;2023-05-23T03:53:12;99512.63;;;15.64;100.00
53546;BME280;39432;51.902;10.844;2023-05-23T03:55:42;99536.34;;;15.65;100.00
53546;BME280;39432;51.902;10.844;2023-05-23T03:58:12;99541.50;;;15.42;100.00
53546;BME280;39432;51.902;10.844;2023-05-23T04:00:48;99562.66;;;15.23;100.00
53546;BME280;39432;51.902;10.844;2023-05-23T04:03:20;99575.50;;;15.03;100.00
53546;BME280;39432;51.902;10.844;2023-05-23T04:05:50;99586.16;;;15.15;100.00
53546;BME280;39432;51.902;10.844;2023-05-23T04:08:20;99572.44;;;14.71;100.00
53546;BME280;39432;51.902;10.844;2023-05-23T04:10:50;99580.00;;;14.45;100.00
53546;BME280;39432;51.902;10.844;2023-05-23T04:13:21;99593.47;;;14.57;100.00
53546;BME280;39432;51.902;10.844;2023-05-23T04:15:55;99595.44;;;14.51;100.00
53546;BME280;39432;51.902;10.844;2023-05-23T04:18:27;99605.88;;;14.44;100.00
53546;BME280;39432;51.902;10.844;2023-05-23T04:20:58;99611.06;;;14.56;100.00
53546;BME280;39432;51.902;10.844;2023-05-23T04:23:29;99612.13;;;14.65;100.00
53546;BME280;39432;51.902;10.844;2023-05-23T04:25:59;99605.16;;;14.77;100.00
53546;BME280;39432;51.902;10.844;2023-05-23T04:28:34;99601.66;;;14.67;100.00
53546;BME280;39432;51.902;10.844;2023-05-23T04:31:08;99605.69;;;14.85;100.00
53546;BME280;39432;51.902;10.844;2023-05-23T04:33:38;99601.97;;;14.99;100.00
53546;BME280;39432;51.902;10.844;2023-05-23T04:36:09;99596.03;;;14.82;100.00
53546;BME280;39432;51.902;10.844;2023-05-23T04:38:42;99594.13;;;14.77;100.00
53546;BME280;39432;51.902;10.844;2023-05-23T04:41:12;99602.56;;;14.96;100.00
53546;BME280;39432;51.902;10.844;2023-05-23T04:44:00;99592.47;;;15.16;100.00
53546;BME280;39432;51.902;10.844;2023-05-23T04:46:45;99565.22;;;14.80;100.00
53546;BME280;39432;51.902;10.844;2023-05-23T04:49:26;99570.06;;;14.93;100.00
53546;BME280;39432;51.902;10.844;2023-05-23T04:52:00;99560.19;;;14.87;100.00
53546;BME280;39432;51.902;10.844;2023-05-23T04:54:31;99557.31;;;15.02;100.00
53546;BME280;39432;51.902;10.844;2023-05-23T04:57:03;99545.63;;;15.16;100.00
53546;BME280;39432;51.902;10.844;2023-05-23T04:59:33;99532.00;;;15.00;100.00
53546;BME280;39432;51.902;10.844;2023-05-23T05:02:07;99525.13;;;15.27;100.00
53546;BME280;39432;51.902;10.844;2023-05-23T05:04:37;99525.91;;;15.03;100.00
53546;BME280;39432;51.902;10.844;2023-05-23T05:07:07;99516.19;;;14.77;100.00
53546;BME280;39432;51.902;10.844;2023-05-23T05:09:38;99514.06;;;15.03;100.00
53546;BME280;39432;51.902;10.844;2023-05-23T05:12:09;99512.06;;;15.09;100.00
53546;BME280;39432;51.902;10.844;2023-05-23T05:14:39;99504.75;;;15.76;100.00
53546;BME280;39432;51.902;10.844;2023-05-23T05:17:12;99494.56;;;16.38;100.00
53546;BME280;39432;51.902;10.844;2023-05-23T05:19:58;99460.91;;;16.69;100.00
53546;BME280;39432;51.902;10.844;2023-05-23T05:22:28;99431.16;;;16.47;100.00
53546;BME280;39432;51.902;10.844;2023-05-23T05:24:58;99428.53;;;17.48;100.00
53546;BME280;39432;51.902;10.844;2023-05-23T05:27:28;99404.44;;;16.61;100.00
53546;BME280;39432;51.902;10.844;2023-05-23T05:29:58;99392.69;;;17.16;100.00
53546;BME280;39432;51.902;10.844;2023-05-23T05:32:36;99390.56;;;16.80;100.00
53546;BME280;39432;51.902;10.844;2023-05-23T05:35:06;99387.91;;;16.75;100.00
53546;BME280;39432;51.902;10.844;2023-05-23T05:37:41;99382.72;;;16.54;100.00
53546;BME280;39432;51.902;10.844;2023-05-23T05:40:12;99386.88;;;16.38;100.00
53546;BME280;39432;51.902;10.844;2023-05-23T05:42:42;99384.69;;;16.35;100.00
53546;BME280;39432;51.902;10.844;2023-05-23T05:45:12;99393.69;;;16.27;100.00
53546;BME280;39432;51.902;10.844;2023-05-23T05:47:45;99401.97;;;16.27;100.00
53546;BME280;39432;51.902;10.844;2023-05-23T05:50:18;99405.25;;;15.91;100.00
53546;BME280;39432;51.902;10.844;2023-05-23T05:52:47;99414.25;;;16.34;100.00
53546;BME280;39432;51.902;10.844;2023-05-23T05:55:17;99401.81;;;16.18;100.00
53546;BME280;39432;51.902;10.844;2023-05-23T05:57:51;99410.97;;;16.14;100.00
53546;BME280;39432;51.902;10.844;2023-05-23T06:00:22;99414.03;;;15.50;100.00
53546;BME280;39432;51.902;10.844;2023-05-23T06:02:57;99428.59;;;15.56;100.00
53546;BME280;39432;51.902;10.844;2023-05-23T06:05:40;99431.75;;;15.68;100.00
53546;BME280;39432;51.902;10.844;2023-05-23T06:08:10;99440.84;;;16.12;100.00
53546;BME280;39432;51.902;10.844;2023-05-23T06:10:41;99431.19;;;16.09;100.00
53546;BME280;39432;51.902;10.844;2023-05-23T06:13:12;99427.84;;;15.93;100.00
53546;BME280;39432;51.902;10.844;2023-05-23T06:15:45;99435.16;;;15.84;100.00
53546;BME280;39432;51.902;10.844;2023-05-23T06:18:17;99428.09;;;16.16;100.00
53546;BME280;39432;51.902;10.844;2023-05-23T06:20:49;99427.56;;;16.32;100.00
53546;BME280;39432;51.902;10.844;2023-05-23T06:23:20;99426.06;;;16.02;100.00
53546;BME280;39432;51.902;10.844;2023-05-23T06:25:51;99413.66;;;16.19;100.00
53546;BME280;39432;51.902;10.844;2023-05-23T06:28:20;99412.63;;;16.66;100.00
53546;BME280;39432;51.902;10.844;2023-05-23T06:30:50;99400.50;;;16.81;100.00
53546;BME280;39432;51.902;10.844;2023-05-23T06:33:22;99396.97;;;17.49;100.00
53546;BME280;39432;51.902;10.844;2023-05-23T06:35:52;99376.69;;;17.40;100.00
53546;BME280;39432;51.902;10.844;2023-05-23T06:38:22;99366.97;;;17.01;100.00
53546;BME280;39432;51.902;10.844;2023-05-23T06:40:52;99359.44;;;16.42;100.00
53546;BME280;39432;51.902;10.844;2023-05-23T06:43:22;99366.53;;;16.48;100.00
53546;BME280;39432;51.902;10.844;2023-05-23T06:45:52;99368.81;;;16.59;100.00
53546;BME280;39432;51.902;10.844;2023-05-23T06:48:28;99373.88;;;16.39;100.00
53546;BME280;39432;51.902;10.844;2023-05-23T06:50:58;99366.66;;;16.24;100.00
53546;BME280;39432;51.902;10.844;2023-05-23T06:53:28;99369.72;;;16.22;100.00
53546;BME280;39432;51.902;10.844;2023-05-23T06:55:58;99369.72;;;16.03;100.00
53546;BME280;39432;51.902;10.844;2023-05-23T06:58:31;99374.44;;;16.03;100.00
53546;BME280;39432;51.902;10.844;2023-05-23T07:01:01;99381.94;;;16.35;100.00
53546;BME280;39432;51.902;10.844;2023-05-23T07:03:38;99380.25;;;16.01;100.00
53546;BME280;39432;51.902;10.844;2023-05-23T07:06:10;99383.72;;;15.93;100.00
53546;BME280;39432;51.902;10.844;2023-05-23T07:08:40;99395.91;;;15.87;100.00
53546;BME280;39432;51.902;10.844;2023-05-23T07:11:13;99401.81;;;15.80;100.00
53546;BME280;39432;51.902;10.844;2023-05-23T07:13:48;99391.13;;;15.74;100.00
53546;BME280;39432;51.902;10.844;2023-05-23T07:16:25;99402.88;;;15.61;100.00
53546;BME280;39432;51.902;10.844;2023-05-23T07:19:07;99406.47;;;15.61;100.00
53546;BME280;39432;51.902;10.844;2023-05-23T07:21:43;99404.50;;;15.67;100.00
53546;BME280;39432;51.902;10.844;2023-05-23T07:24:15;99396.66;;;15.74;100.00
53546;BME280;39432;51.902;10.844;2023-05-23T07:26:46;99402.34;;;16.01;100.00
53546;BME280;39432;51.902;10.844;2023-05-23T07:29:16;99397.41;;;15.98;100.00
53546;BME280;39432;51.902;10.844;2023-05-23T07:31:48;99398.00;;;15.95;100.00
53546;BME280;39432;51.902;10.844;2023-05-23T07:34:21;99402.91;;;15.98;100.00
53546;BME280;39432;51.902;10.844;2023-05-23T07:36:55;99401.75;;;16.04;100.00
53546;BME280;39432;51.902;10.844;2023-05-23T07:39:27;99407.34;;;15.99;100.00
53546;BME280;39432;51.902;10.844;2023-05-23T07:41:58;99407.84;;;16.01;100.00
53546;BME280;39432;51.902;10.844;2023-05-23T07:44:28;99409.50;;;16.02;100.00
53546;BME280;39432;51.902;10.844;2023-05-23T07:46:58;99413.22;;;15.74;100.00
53546;BME280;39432;51.902;10.844;2023-05-23T07:49:31;99425.16;;;15.88;100.00
53546;BME280;39432;51.902;10.844;2023-05-23T07:52:03;99421.66;;;15.59;100.00
53546;BME280;39432;51.902;10.844;2023-05-23T07:54:34;99427.28;;;15.48;100.00
53546;BME280;39432;51.902;10.844;2023-05-23T07:57:04;99437.66;;;15.80;100.00
53546;BME280;39432;51.902;10.844;2023-05-23T07:59:35;99440.09;;;15.39;100.00
53546;BME280;39432;51.902;10.844;2023-05-23T08:02:05;99452.75;;;15.40;100.00
53546;BME280;39432;51.902;10.844;2023-05-23T08:04:39;99450.69;;;15.27;100.00
53546;BME280;39432;51.902;10.844;2023-05-23T08:07:08;99464.84;;;15.44;100.00
53546;BME280;39432;51.902;10.844;2023-05-23T08:10:08;99456.41;;;15.36;100.00
53546;BME280;39432;51.902;10.844;2023-05-23T08:12:56;99471.75;;;15.42;100.00
53546;BME280;39432;51.902;10.844;2023-05-23T08:15:31;99465.91;;;15.48;100.00
53546;BME280;39432;51.902;10.844;2023-05-23T08:18:08;99471.47;;;15.43;100.00
53546;BME280;39432;51.902;10.844;2023-05-23T08:20:41;99471.06;;;15.31;100.00
53546;BME280;39432;51.902;10.844;2023-05-23T08:23:11;99481.16;;;15.41;100.00
53546;BME280;39432;51.902;10.844;2023-05-23T08:25:41;99475.16;;;15.58;100.00
53546;BME280;39432;51.902;10.844;2023-05-23T08:28:11;99486.56;;;15.75;100.00
53546;BME280;39432;51.902;10.844;2023-05-23T08:30:52;99463.78;;;15.40;100.00
53546;BME280;39432;51.902;10.844;2023-05-23T08:33:23;99481.63;;;15.24;100.00
53546;BME280;39432;51.902;10.844;2023-05-23T08:35:59;99484.09;;;15.49;100.00
53546;BME280;39432;51.902;10.844;2023-05-23T08:38:29;99485.31;;;15.38;100.00
53546;BME280;39432;51.902;10.844;2023-05-23T08:41:14;99491.13;;;15.37;100.00
53546;BME280;39432;51.902;10.844;2023-05-23T08:43:46;99497.09;;;15.20;100.00
53546;BME280;39432;51.902;10.844;2023-05-23T08:46:23;99510.47;;;15.32;100.00
53546;BME280;39432;51.902;10.844;2023-05-23T08:48:54;99513.16;;;15.13;100.00
53546;BME280;39432;51.902;10.844;2023-05-23T08:51:27;99530.25;;;15.10;100.00
53546;BME280;39432;51.902;10.844;2023-05-23T08:54:01;99543.31;;;14.94;100.00
53546;BME280;39432;51.902;10.844;2023-05-23T08:56:32;99556.59;;;14.92;100.00
53546;BME280;39432;51.902;10.844;2023-05-23T08:59:02;99576.56;;;14.73;100.00
53546;BME280;39432;51.902;10.844;2023-05-23T09:01:34;99576.25;;;14.75;100.00
53546;BME280;39432;51.902;10.844;2023-05-23T09:04:08;99581.91;;;14.55;100.00
53546;BME280;39432;51.902;10.844;2023-05-23T09:06:51;99592.94;;;14.49;100.00
53546;BME280;39432;51.902;10.844;2023-05-23T09:09:22;99595.22;;;14.27;100.00
53546;BME280;39432;51.902;10.844;2023-05-23T09:11:53;99600.13;;;14.40;100.00
53546;BME280;39432;51.902;10.844;2023-05-23T09:14:27;99615.56;;;14.31;100.00
53546;BME280;39432;51.902;10.844;2023-05-23T09:17:02;99616.13;;;14.28;100.00
53546;BME280;39432;51.902;10.844;2023-05-23T09:19:32;99619.72;;;14.29;100.00
53546;BME280;39432;51.902;10.844;2023-05-23T09:22:22;99627.69;;;14.30;100.00
53546;BME280;39432;51.902;10.844;2023-05-23T09:25:00;99643.66;;;14.28;100.00
53546;BME280;39432;51.902;10.844;2023-05-23T09:27:31;99641.00;;;14.08;100.00
53546;BME280;39432;51.902;10.844;2023-05-23T09:30:05;99648.13;;;14.14;100.00
53546;BME280;39432;51.902;10.844;2023-05-23T09:32:35;99661.31;;;14.17;100.00
53546;BME280;39432;51.902;10.844;2023-05-23T09:35:06;99660.47;;;14.16;100.00
53546;BME280;39432;51.902;10.844;2023-05-23T09:37:42;99660.75;;;14.25;100.00
53546;BME280;39432;51.902;10.844;2023-05-23T09:40:14;99676.66;;;14.33;100.00
53546;BME280;39432;51.902;10.844;2023-05-23T09:42:53;99673.72;;;14.09;100.00
53546;BME280;39432;51.902;10.844;2023-05-23T09:45:28;99682.78;;;14.20;100.00
53546;BME280;39432;51.902;10.844;2023-05-23T09:48:01;99686.38;;;14.05;100.00
53546;BME280;39432;51.902;10.844;2023-05-23T09:50:31;99686.16;;;13.86;100.00
53546;BME280;39432;51.902;10.844;2023-05-23T09:53:05;99692.19;;;13.88;100.00
53546;BME280;39432;51.902;10.844;2023-05-23T09:55:35;99693.06;;;13.68;100.00
53546;BME280;39432;51.902;10.844;2023-05-23T09:58:06;99698.25;;;13.50;100.00
53546;BME280;39432;51.902;10.844;2023-05-23T10:00:38;99710.91;;;13.56;100.00
53546;BME280;39432;51.902;10.844;2023-05-23T10:03:10;99720.25;;;13.65;100.00
53546;BME280;39432;51.902;10.844;2023-05-23T10:05:43;99723.00;;;13.65;100.00
53546;BME280;39432;51.902;10.844;2023-05-23T10:08:18;99726.59;;;13.70;100.00
53546;BME280;39432;51.902;10.844;2023-05-23T10:14:05;99725.19;;;13.73;100.00
53546;BME280;39432;51.902;10.844;2023-05-23T10:16:39;99721.63;;;13.62;100.00
53546;BME280;39432;51.902;10.844;2023-05-23T10:19:16;99732.34;;;13.49;100.00
53546;BME280;39432;51.902;10.844;2023-05-23T10:21:49;99735.66;;;13.51;100.00
53546;BME280;39432;51.902;10.844;2023-05-23T10:24:26;99744.44;;;13.48;100.00
53546;BME280;39432;51.902;10.844;2023-05-23T10:26:57;99747.19;;;13.48;100.00
53546;BME280;39432;51.902;10.844;2023-05-23T10:29:28;99751.59;;;13.59;100.00
53546;BME280;39432;51.902;10.844;2023-05-23T10:32:00;99758.19;;;13.48;100.00
53546;BME280;39432;51.902;10.844;2023-05-23T10:34:35;99751.59;;;13.54;100.00
53546;BME280;39432;51.902;10.844;2023-05-23T10:37:06;99763.16;;;13.66;100.00
53546;BME280;39432;51.902;10.844;2023-05-23T10:39:51;99769.22;;;13.68;100.00
53546;BME280;39432;51.902;10.844;2023-05-23T10:42:33;99754.88;;;13.56;100.00
53546;BME280;39432;51.902;10.844;2023-05-23T10:45:13;99766.72;;;13.61;100.00
53546;BME280;39432;51.902;10.844;2023-05-23T10:47:45;99765.91;;;13.66;100.00
53546;BME280;39432;51.902;10.844;2023-05-23T10:50:28;99768.66;;;13.86;100.00
53546;BME280;39432;51.902;10.844;2023-05-23T10:53:00;99759.31;;;13.72;100.00
53546;BME280;39432;51.902;10.844;2023-05-23T10:55:34;99753.47;;;13.28;100.00
53546;BME280;39432;51.902;10.844;2023-05-23T10:58:14;99756.72;;;13.14;100.00
53546;BME280;39432;51.902;10.844;2023-05-23T11:00:52;99761.72;;;13.28;100.00
53546;BME280;39432;51.902;10.844;2023-05-23T11:03:33;99775.47;;;13.28;100.00
53546;BME280;39432;51.902;10.844;2023-05-23T11:06:04;99776.81;;;13.20;100.00
53546;BME280;39432;51.902;10.844;2023-05-23T11:08:38;99783.88;;;13.06;100.00
53546;BME280;39432;51.902;10.844;2023-05-23T11:11:17;99782.19;;;12.95;100.00
53546;BME280;39432;51.902;10.844;2023-05-23T11:13:56;99805.25;;;12.88;100.00
53546;BME280;39432;51.902;10.844;2023-05-23T11:16:28;99803.84;;;12.81;100.00
53546;BME280;39432;51.902;10.844;2023-05-23T11:19:20;99816.03;;;13.10;100.00
53546;BME280;39432;51.902;10.844;2023-05-23T11:21:53;99819.53;;;12.90;100.00
53546;BME280;39432;51.902;10.844;2023-05-23T11:24:46;99818.34;;;12.71;100.00
53546;BME280;39432;51.902;10.844;2023-05-23T11:27:24;99830.25;;;12.87;100.00
53546;BME280;39432;51.902;10.844;2023-05-23T11:30:02;99834.31;;;12.84;100.00
53546;BME280;39432;51.902;10.844;2023-05-23T11:32:32;99835.06;;;12.64;100.00
53546;BME280;39432;51.902;10.844;2023-05-23T11:35:04;99840.22;;;12.56;100.00
53546;BME280;39432;51.902;10.844;2023-05-23T11:37:37;99856.00;;;12.76;100.00
53546;BME280;39432;51.902;10.844;2023-05-23T11:40:28;99841.16;;;12.34;100.00
53546;BME280;39432;51.902;10.844;2023-05-23T11:43:02;99862.00;;;12.35;100.00
53546;BME280;39432;51.902;10.844;2023-05-23T11:45:34;99867.38;;;12.15;100.00
53546;BME280;39432;51.902;10.844;2023-05-23T11:48:08;99881.03;;;12.10;100.00
53546;BME280;39432;51.902;10.844;2023-05-23T11:50:46;99903.53;;;12.12;100.00
53546;BME280;39432;51.902;10.844;2023-05-23T11:53:18;99909.06;;;12.17;100.00
53546;BME280;39432;51.902;10.844;2023-05-23T11:55:57;99925.31;;;12.24;100.00
53546;BME280;39432;51.902;10.844;2023-05-23T11:58:36;99920.53;;;12.14;100.00
53546;BME280;39432;51.902;10.844;2023-05-23T12:01:08;99926.47;;;12.01;100.00
53546;BME280;39432;51.902;10.844;2023-05-23T12:03:44;99926.69;;;11.94;100.00
53546;BME280;39432;51.902;10.844;2023-05-23T12:06:17;99930.50;;;11.93;100.00
53546;BME280;39432;51.902;10.844;2023-05-23T12:08:47;99938.97;;;11.92;100.00
53546;BME280;39432;51.902;10.844;2023-05-23T12:11:17;99949.50;;;12.00;100.00
53546;BME280;39432;51.902;10.844;2023-05-23T12:13:51;99940.00;;;11.85;100.00
53546;BME280;39432;51.902;10.844;2023-05-23T12:16:21;99948.94;;;11.98;100.00
53546;BME280;39432;51.902;10.844;2023-05-23T12:18:51;99955.03;;;12.05;100.00
53546;BME280;39432;51.902;10.844;2023-05-23T12:21:24;99957.28;;;12.13;100.00
53546;BME280;39432;51.902;10.844;2023-05-23T12:23:55;99957.34;;;12.18;100.00
53546;BME280;39432;51.902;10.844;2023-05-23T12:26:25;99964.44;;;12.14;100.00
53546;BME280;39432;51.902;10.844;2023-05-23T12:28:57;99958.53;;;12.00;100.00
53546;BME280;39432;51.902;10.844;2023-05-23T12:31:27;99958.75;;;11.94;100.00
53546;BME280;39432;51.902;10.844;2023-05-23T12:33:57;99960.63;;;11.88;100.00
53546;BME280;39432;51.902;10.844;2023-05-23T12:36:28;99967.81;;;11.94;100.00
53546;BME280;39432;51.902;10.844;2023-05-23T12:39:07;99973.25;;;11.89;100.00
53546;BME280;39432;51.902;10.844;2023-05-23T12:41:43;99972.25;;;11.78;100.00
53546;BME280;39432;51.902;10.844;2023-05-23T12:44:17;99974.50;;;11.59;100.00
53546;BME280;39432;51.902;10.844;2023-05-23T12:47:05;99974.25;;;11.61;100.00
53546;BME280;39432;51.902;10.844;2023-05-23T12:49:38;99984.31;;;11.77;100.00
53546;BME280;39432;51.902;10.844;2023-05-23T12:52:10;99973.50;;;11.66;100.00
53546;BME280;39432;51.902;10.844;2023-05-23T12:54:40;99980.03;;;11.86;100.00
53546;BME280;39432;51.902;10.844;2023-05-23T12:57:10;99983.50;;;11.99;100.00
53546;BME280;39432;51.902;10.844;2023-05-23T12:59:43;99975.09;;;11.83;100.00
53546;BME280;39432;51.902;10.844;2023-05-23T13:02:12;99984.38;;;11.60;100.00
53546;BME280;39432;51.902;10.844;2023-05-23T13:04:42;99984.13;;;11.62;100.00
53546;BME280;39432;51.902;10.844;2023-05-23T13:07:12;100001.84;;;11.76;100.00
53546;BME280;39432;51.902;10.844;2023-05-23T13:09:42;100006.75;;;11.74;100.00
53546;BME280;39432;51.902;10.844;2023-05-23T13:12:12;100016.53;;;11.65;100.00